Time;durP1;ratioP1;P1;durP2;ratioP2;P2;SDS_P1;SDS_P2;PMS_P1;PMS_P2;Temp;Humidity;BMP_temperature;BMP_pressure;BME280_temperature;BME280_humidity;BME280_pressure;Samples;Min_cycle;Max_cycle;Signal;HPM_P1;HPM_P2
2021/10/02 00:31:10;;;;;;;5.83;2.50;;;13.70;99.90;;;;;;4970718;28;20208;-92
2021/10/02 00:35:22;;;;;;;5.80;2.03;;;13.30;99.90;;;;;;4985902;28;20228;-91
2021/10/02 00:46:05;;;;;;;4.30;1.73;;;13.20;99.90;;;;;;4947355;28;20192;-91
2021/10/02 00:48:31;;;;;;;2.60;1.23;;;13.20;99.90;;;;;;4969312;28;20580;-92
2021/10/02 00:51:00;;;;;;;7.97;2.03;;;13.20;99.90;;;;;;4977734;28;20309;-92
2021/10/02 00:53:27;;;;;;;1.90;1.77;;;13.10;99.90;;;;;;4964161;28;20224;-91
2021/10/02 00:55:53;;;;;;;6.40;1.63;;;13.10;99.90;;;;;;4953618;28;20224;-91
2021/10/02 00:58:19;;;;;;;1.83;1.50;;;13.10;99.90;;;;;;4954425;28;20195;-92
2021/10/02 01:00:48;;;;;;;2.20;1.60;;;13.10;99.90;;;;;;4988170;28;20294;-91
2021/10/02 01:03:18;;;;;;;4.00;2.50;;;13.10;99.90;;;;;;4985738;28;20243;-91
2021/10/02 01:06:17;;;;;;;1.87;1.70;;;13.10;99.90;;;;;;4970229;28;20689;-91
2021/10/02 01:08:56;;;;;;;3.33;1.50;;;13.10;99.90;;;;;;4975099;28;21280;-91
2021/10/02 01:11:42;;;;;;;1.70;1.60;;;13.10;99.90;;;;;;4985889;28;20586;-91
2021/10/02 01:14:16;;;;;;;4.00;1.40;;;13.10;99.90;;;;;;4969917;28;20217;-91
2021/10/02 01:16:47;;;;;;;3.60;2.20;;;13.10;99.90;;;;;;4985691;28;20269;-91
2021/10/02 01:19:50;;;;;;;2.47;1.93;;;13.10;99.90;;;;;;4970286;28;20180;-91
2021/10/02 01:22:54;;;;;;;1.87;1.60;;;13.10;99.90;;;;;;4970309;28;20211;-90
2021/10/02 01:25:57;;;;;;;2.70;1.90;;;13.00;99.90;;;;;;4970789;28;20319;-91
2021/10/02 01:28:25;;;;;;;5.40;1.43;;;13.00;99.90;;;;;;5001993;28;20204;-91
2021/10/02 01:34:03;;;;;;;3.03;2.00;;;12.90;99.90;;;;;;4969475;28;20227;-91
2021/10/02 01:37:07;;;;;;;3.87;1.57;;;12.90;99.90;;;;;;5001149;28;20235;-91
2021/10/02 01:47:55;;;;;;;5.57;1.67;;;12.60;99.90;;;;;;4970131;28;20287;-91
2021/10/02 01:50:23;;;;;;;4.93;2.80;;;12.50;99.90;;;;;;4985448;28;20772;-91
2021/10/02 01:52:50;;;;;;;1.43;1.23;;;12.50;99.90;;;;;;4969129;28;20291;-92
2021/10/02 01:55:18;;;;;;;2.43;1.27;;;12.50;99.90;;;;;;4984819;28;20279;-90
2021/10/02 01:57:53;;;;;;;2.47;2.27;;;12.40;99.90;;;;;;4984991;28;20877;-91
2021/10/02 02:00:19;;;;;;;3.10;2.77;;;12.40;99.90;;;;;;4968893;28;20232;-91
2021/10/02 02:02:48;;;;;;;2.07;1.63;;;12.30;99.90;;;;;;4984982;28;20340;-91
2021/10/02 02:05:19;;;;;;;2.83;1.80;;;12.30;99.90;;;;;;4969071;28;20307;-90
2021/10/02 02:07:49;;;;;;;2.90;2.20;;;12.30;99.90;;;;;;4985152;28;20362;-91
2021/10/02 02:10:16;;;;;;;2.80;1.97;;;12.40;99.90;;;;;;5001064;28;20231;-91
2021/10/02 02:12:43;;;;;;;2.53;1.63;;;12.40;99.90;;;;;;4985265;28;20185;-91
2021/10/02 02:15:12;;;;;;;3.13;2.33;;;12.40;99.90;;;;;;4984368;28;20578;-91
2021/10/02 02:17:47;;;;;;;1.77;1.63;;;12.40;99.90;;;;;;4968246;28;20590;-91
2021/10/02 02:20:39;;;;;;;3.70;1.70;;;12.30;99.90;;;;;;4984692;28;20255;-91
2021/10/02 02:23:05;;;;;;;1.57;1.17;;;12.30;99.90;;;;;;4966404;28;20220;-91
2021/10/02 02:25:32;;;;;;;1.70;1.60;;;12.30;99.90;;;;;;4967968;28;20343;-92
2021/10/02 02:27:58;;;;;;;3.63;1.93;;;12.30;99.90;;;;;;4967841;28;20201;-91
2021/10/02 02:30:24;;;;;;;3.27;1.90;;;12.30;99.90;;;;;;4984207;28;20212;-92
2021/10/02 02:32:51;;;;;;;2.83;1.83;;;12.30;99.90;;;;;;4968050;28;20236;-91
2021/10/02 02:35:22;;;;;;;2.13;1.63;;;12.20;99.90;;;;;;4999851;28;20228;-91
2021/10/02 02:37:49;;;;;;;2.70;1.50;;;12.20;99.90;;;;;;4951301;28;20223;-91
2021/10/02 02:40:15;;;;;;;3.53;1.77;;;12.10;99.90;;;;;;4967447;28;20220;-91
2021/10/02 02:42:42;;;;;;;1.73;1.63;;;12.10;99.90;;;;;;4984158;28;20661;-92
2021/10/02 02:45:12;;;;;;;2.03;1.57;;;12.10;99.90;;;;;;4983727;28;20251;-91
2021/10/02 02:47:51;;;;;;;7.00;1.83;;;12.10;99.90;;;;;;4966941;28;20228;-91
2021/10/02 02:50:34;;;;;;;2.80;2.17;;;12.10;99.90;;;;;;4983234;28;20212;-91
2021/10/02 02:53:11;;;;;;;2.87;1.83;;;12.00;99.90;;;;;;4967839;28;20733;-91
2021/10/02 02:55:44;;;;;;;2.00;1.83;;;12.00;99.90;;;;;;4999688;28;20224;-92
2021/10/02 02:58:11;;;;;;;2.00;1.43;;;12.00;99.90;;;;;;4967255;28;20192;-90
2021/10/02 03:00:56;;;;;;;3.90;1.53;;;11.90;99.90;;;;;;5000671;28;20240;-91
2021/10/02 03:03:32;;;;;;;2.30;1.60;;;11.90;99.90;;;;;;4999261;28;20331;-91
2021/10/02 03:06:03;;;;;;;2.90;1.70;;;11.90;99.90;;;;;;4966804;28;20267;-92
2021/10/02 03:08:37;;;;;;;4.57;2.20;;;11.90;99.90;;;;;;4966996;28;20212;-91
2021/10/02 03:11:04;;;;;;;3.60;1.97;;;11.90;99.90;;;;;;4968094;28;20248;-91
2021/10/02 03:13:33;;;;;;;5.10;1.70;;;11.80;99.90;;;;;;4983374;28;20216;-91
2021/10/02 03:16:02;;;;;;;2.63;1.63;;;11.80;99.90;;;;;;5000438;28;20247;-91
2021/10/02 03:18:29;;;;;;;4.77;3.00;;;11.80;99.90;;;;;;5000312;28;20204;-91
2021/10/02 03:20:57;;;;;;;3.70;2.50;;;11.80;99.90;;;;;;4982885;28;20229;-91
2021/10/02 03:23:26;;;;;;;3.27;1.93;;;11.80;99.90;;;;;;4967600;28;20327;-91
2021/10/02 03:25:53;;;;;;;4.50;2.73;;;11.70;99.90;;;;;;4999057;28;20255;-91
2021/10/02 03:28:19;;;;;;;4.00;2.83;;;11.70;99.90;;;;;;4982593;28;20210;-91
2021/10/02 03:30:45;;;;;;;8.80;3.60;;;11.70;99.90;;;;;;4966716;28;20721;-91
2021/10/02 03:33:14;;;;;;;5.90;3.03;;;11.70;99.90;;;;;;4967075;28;20220;-91
2021/10/02 03:35:41;;;;;;;4.87;3.03;;;11.70;99.90;;;;;;4967343;28;20220;-91
2021/10/02 03:38:07;;;;;;;5.37;2.23;;;11.70;99.90;;;;;;4967029;28;20216;-91
2021/10/02 03:40:33;;;;;;;4.33;3.17;;;11.70;99.90;;;;;;4998721;28;20316;-91
2021/10/02 03:42:59;;;;;;;2.93;2.20;;;11.70;99.90;;;;;;4999515;28;20197;-91
2021/10/02 03:45:29;;;;;;;4.00;2.53;;;11.80;99.90;;;;;;4966616;28;20220;-91
2021/10/02 03:47:55;;;;;;;7.27;3.47;;;11.90;99.90;;;;;;4967081;28;20216;-92
2021/10/02 03:50:22;;;;;;;4.50;3.53;;;11.90;99.90;;;;;;4999136;28;20217;-91
2021/10/02 03:52:48;;;;;;;4.93;3.23;;;11.90;99.90;;;;;;4982547;28;20728;-92
2021/10/02 03:55:15;;;;;;;4.23;3.07;;;11.80;99.90;;;;;;4982871;28;20195;-90
2021/10/02 03:57:42;;;;;;;5.17;3.40;;;11.90;99.90;;;;;;4967222;28;20187;-91
2021/10/02 04:00:09;;;;;;;8.77;3.23;;;11.80;99.90;;;;;;4968989;28;20240;-91
2021/10/02 04:02:35;;;;;;;6.07;3.40;;;11.80;99.90;;;;;;4970251;28;20657;-91
2021/10/02 04:05:01;;;;;;;4.03;2.67;;;11.70;99.90;;;;;;4986101;28;21322;-91
2021/10/02 04:07:27;;;;;;;10.83;3.40;;;11.70;99.90;;;;;;5002864;28;20192;-91
2021/10/02 04:09:53;;;;;;;7.33;2.90;;;11.70;99.90;;;;;;4970951;28;20207;-91
2021/10/02 04:12:19;;;;;;;6.40;2.80;;;11.70;99.90;;;;;;4969608;28;21394;-91
2021/10/02 04:14:47;;;;;;;7.40;4.03;;;11.70;99.90;;;;;;4969683;28;20637;-92
2021/10/02 04:17:13;;;;;;;8.27;3.33;;;11.70;99.90;;;;;;4986219;28;20251;-91
2021/10/02 04:19:39;;;;;;;4.50;3.47;;;11.70;99.90;;;;;;4970143;28;20612;-92
2021/10/02 04:22:05;;;;;;;4.50;2.90;;;11.70;99.90;;;;;;4986827;28;20712;-92
2021/10/02 04:24:31;;;;;;;7.23;3.50;;;11.70;99.90;;;;;;4985935;28;20217;-91
2021/10/02 04:26:58;;;;;;;4.40;2.90;;;11.70;99.90;;;;;;4969526;28;20237;-92
2021/10/02 04:29:28;;;;;;;3.93;3.27;;;11.70;99.90;;;;;;4969595;28;20223;-92
2021/10/02 04:31:54;;;;;;;4.03;3.03;;;11.70;99.90;;;;;;4985944;28;20229;-92
2021/10/02 04:34:20;;;;;;;9.40;3.57;;;11.60;99.90;;;;;;4969591;28;20192;-92
2021/10/02 04:36:46;;;;;;;5.13;2.63;;;11.60;99.90;;;;;;4986144;28;20196;-92
2021/10/02 04:39:12;;;;;;;4.50;3.07;;;11.60;99.90;;;;;;4969756;28;20215;-91
2021/10/02 04:41:38;;;;;;;4.17;2.70;;;11.60;99.90;;;;;;4985729;28;20220;-91
2021/10/02 04:44:05;;;;;;;6.60;3.03;;;11.60;99.90;;;;;;4969260;28;20371;-92
2021/10/02 04:46:31;;;;;;;3.03;2.53;;;11.60;99.90;;;;;;4986549;28;20682;-92
2021/10/02 04:48:57;;;;;;;7.17;3.17;;;11.50;99.90;;;;;;5002125;28;20196;-92
2021/10/02 04:51:23;;;;;;;8.13;3.87;;;11.50;99.90;;;;;;4969559;28;20712;-91
2021/10/02 04:53:49;;;;;;;3.07;2.80;;;11.50;99.90;;;;;;5001342;28;20689;-92
2021/10/02 04:56:16;;;;;;;5.83;3.27;;;11.40;99.90;;;;;;4968941;28;20228;-92
2021/10/02 04:58:46;;;;;;;5.27;3.37;;;11.40;99.90;;;;;;4969912;28;20220;-91
2021/10/02 05:01:12;;;;;;;4.67;2.73;;;11.40;99.90;;;;;;4985575;28;20204;-90
2021/10/02 05:03:40;;;;;;;4.43;3.23;;;11.30;99.90;;;;;;4985523;28;20188;-92
2021/10/02 05:06:07;;;;;;;8.83;2.80;;;11.30;99.90;;;;;;5000472;28;20204;-92
2021/10/02 05:08:33;;;;;;;5.23;4.37;;;11.30;99.90;;;;;;4969028;28;20296;-91
2021/10/02 05:11:00;;;;;;;5.07;3.13;;;11.30;99.90;;;;;;4968700;28;20212;-92
2021/10/02 05:13:27;;;;;;;4.37;2.83;;;11.30;99.90;;;;;;4969397;28;20189;-91
2021/10/02 05:15:53;;;;;;;7.27;3.20;;;11.30;99.90;;;;;;4937563;28;20561;-91
2021/10/02 05:18:18;;;;;;;4.10;3.63;;;11.20;99.90;;;;;;4985581;28;20252;-92
2021/10/02 05:20:44;;;;;;;3.83;3.10;;;11.20;99.90;;;;;;5001452;28;20594;-91
2021/10/02 05:23:10;;;;;;;5.57;2.97;;;11.20;99.90;;;;;;4985174;28;20251;-92
2021/10/02 05:25:36;;;;;;;4.20;2.67;;;11.20;99.90;;;;;;4984929;28;20228;-92
2021/10/02 05:28:03;;;;;;;7.90;3.63;;;11.20;99.90;;;;;;5001748;28;20189;-92
2021/10/02 05:30:29;;;;;;;3.77;3.33;;;11.20;99.90;;;;;;4984736;28;20720;-91
2021/10/02 05:32:55;;;;;;;5.70;3.87;;;11.20;99.90;;;;;;4984271;28;20221;-91
2021/10/02 05:35:20;;;;;;;6.20;4.07;;;11.30;99.90;;;;;;4968612;28;20292;-91
2021/10/02 05:37:47;;;;;;;3.73;3.30;;;11.30;99.90;;;;;;4968981;28;20252;-91
2021/10/02 05:40:13;;;;;;;7.53;3.73;;;11.30;99.90;;;;;;4968779;28;20276;-91
2021/10/02 05:42:39;;;;;;;4.30;3.13;;;11.40;99.90;;;;;;4968931;28;20227;-92
2021/10/02 05:45:06;;;;;;;6.10;4.10;;;11.30;99.90;;;;;;4969331;28;20244;-91
2021/10/02 05:47:33;;;;;;;6.07;3.47;;;11.40;99.90;;;;;;4984383;28;20221;-91
2021/10/02 05:49:59;;;;;;;8.73;4.07;;;11.40;99.90;;;;;;4968884;28;20263;-92
2021/10/02 05:52:26;;;;;;;10.23;3.10;;;11.40;99.90;;;;;;4985153;28;20255;-91
2021/10/02 05:54:52;;;;;;;6.13;3.03;;;11.40;99.90;;;;;;4985789;28;20193;-91
2021/10/02 05:57:18;;;;;;;5.37;3.00;;;11.40;99.90;;;;;;4985182;28;21355;-91
2021/10/02 05:59:45;;;;;;;4.07;2.77;;;11.40;99.90;;;;;;4985053;28;20213;-92
2021/10/02 06:02:14;;;;;;;2.33;2.13;;;11.40;99.90;;;;;;4964502;28;20227;-91
2021/10/02 06:04:40;;;;;;;2.70;1.87;;;11.40;99.90;;;;;;4973346;28;20228;-91
2021/10/02 06:07:07;;;;;;;3.60;2.70;;;11.50;99.90;;;;;;4959836;28;20177;-91
2021/10/02 06:09:33;;;;;;;3.20;2.83;;;11.50;99.90;;;;;;4973788;28;20221;-92
2021/10/02 06:11:59;;;;;;;3.83;3.43;;;11.60;99.90;;;;;;4974269;28;20318;-92
2021/10/02 06:14:25;;;;;;;2.60;2.40;;;11.60;99.90;;;;;;4968688;28;20328;-91
2021/10/02 06:16:51;;;;;;;4.93;2.90;;;11.50;99.90;;;;;;4957864;28;20232;-91
2021/10/02 06:19:17;;;;;;;2.97;2.27;;;11.40;99.90;;;;;;4926872;28;20193;-91
2021/10/02 06:21:44;;;;;;;10.43;2.90;;;11.50;99.90;;;;;;4956818;28;20228;-91
2021/10/02 06:24:10;;;;;;;5.60;4.23;;;11.50;99.90;;;;;;4973929;28;20228;-91
2021/10/02 06:26:37;;;;;;;9.57;3.13;;;11.60;99.90;;;;;;4960190;28;20253;-91
2021/10/02 06:29:04;;;;;;;4.77;3.63;;;11.50;99.90;;;;;;4974431;28;20208;-91
2021/10/02 06:31:30;;;;;;;5.70;3.50;;;11.50;99.90;;;;;;4960420;28;20723;-91
2021/10/02 06:33:55;;;;;;;3.17;2.30;;;11.50;99.90;;;;;;4993655;28;20189;-91
2021/10/02 06:36:21;;;;;;;7.03;2.60;;;11.50;99.90;;;;;;4960108;28;20217;-91
2021/10/02 06:38:47;;;;;;;2.93;2.50;;;11.40;99.90;;;;;;4955318;28;20215;-91
2021/10/02 06:41:13;;;;;;;3.43;2.60;;;11.30;99.90;;;;;;4992529;28;20229;-91
2021/10/02 06:43:39;;;;;;;4.70;2.73;;;11.20;99.90;;;;;;4973762;28;20216;-91
2021/10/02 06:46:05;;;;;;;2.20;1.90;;;11.20;99.90;;;;;;4942864;28;20201;-91
2021/10/02 06:48:31;;;;;;;3.70;3.10;;;11.40;99.90;;;;;;4961181;28;20212;-91
2021/10/02 06:50:57;;;;;;;3.33;3.03;;;12.10;99.90;;;;;;4979868;28;20213;-91
2021/10/02 06:53:23;;;;;;;6.03;3.87;;;13.60;99.90;;;;;;4951582;28;20199;-90
2021/10/02 06:55:49;;;;;;;6.47;4.50;;;14.90;99.90;;;;;;4973223;28;20205;-90
2021/10/02 06:58:15;;;;;;;12.17;6.20;;;14.90;99.90;;;;;;4989417;28;20193;-91
2021/10/02 07:00:40;;;;;;;5.67;4.07;;;15.00;99.90;;;;;;4991233;28;20212;-90
2021/10/02 07:03:07;;;;;;;7.20;3.50;;;14.50;99.90;;;;;;4941627;28;20217;-91
2021/10/02 07:05:33;;;;;;;3.80;2.87;;;14.30;99.90;;;;;;4958276;28;20212;-91
2021/10/02 07:07:59;;;;;;;7.10;2.50;;;14.10;99.90;;;;;;4976874;28;20216;-91
2021/10/02 07:10:25;;;;;;;3.43;2.63;;;14.10;99.90;;;;;;4968131;28;20212;-90
2021/10/02 07:12:53;;;;;;;2.53;1.90;;;14.00;99.90;;;;;;4995490;28;20196;-90
2021/10/02 07:15:20;;;;;;;1.90;1.47;;;14.00;99.90;;;;;;4993010;28;20216;-90
2021/10/02 07:17:45;;;;;;;5.77;1.83;;;14.00;99.90;;;;;;4997519;28;20284;-90
2021/10/02 07:20:14;;;;;;;2.50;1.67;;;14.00;99.90;;;;;;4981103;28;20224;-90
2021/10/02 07:22:40;;;;;;;1.73;1.63;;;14.40;99.90;;;;;;5003835;28;21065;-90
2021/10/02 07:25:12;;;;;;;1.73;1.63;;;14.60;99.90;;;;;;4957375;28;20185;-90
2021/10/02 07:27:39;;;;;;;2.20;2.03;;;15.00;99.90;;;;;;4977142;28;20215;-90
2021/10/02 07:30:06;;;;;;;6.83;1.70;;;15.60;99.90;;;;;;4992033;28;20219;-90
2021/10/02 07:32:32;;;;;;;1.77;1.47;;;15.90;99.90;;;;;;4993615;28;20213;-90
2021/10/02 07:34:58;;;;;;;4.43;1.30;;;16.10;99.90;;;;;;4975845;28;20223;-91
2021/10/02 07:37:24;;;;;;;1.83;1.70;;;16.00;99.90;;;;;;4987099;28;20192;-88
2021/10/02 07:39:50;;;;;;;7.17;2.10;;;16.20;99.90;;;;;;4971356;28;20732;-90
2021/10/02 07:42:18;;;;;;;2.57;2.03;;;16.40;99.90;;;;;;4954555;28;20248;-90
2021/10/02 07:44:49;;;;;;;3.03;1.90;;;16.70;99.90;;;;;;4971547;28;20229;-90
2021/10/02 07:47:17;;;;;;;4.60;2.00;;;17.00;99.90;;;;;;4975257;28;20216;-90
2021/10/02 07:49:43;;;;;;;2.67;2.47;;;17.20;99.90;;;;;;5007101;28;20212;-87
2021/10/02 07:52:09;;;;;;;1.83;1.67;;;16.80;99.90;;;;;;4961152;28;20185;-89
2021/10/02 07:54:37;;;;;;;6.17;1.90;;;16.40;99.90;;;;;;4961193;28;20626;-90
2021/10/02 07:57:03;;;;;;;2.80;1.73;;;16.10;99.90;;;;;;4975551;28;20210;-90
2021/10/02 07:59:29;;;;;;;2.30;1.80;;;15.60;99.90;;;;;;4973484;28;20205;-89
2021/10/02 08:01:58;;;;;;;1.97;1.70;;;15.30;99.90;;;;;;4988472;28;20217;-89
2021/10/02 08:04:24;;;;;;;2.63;1.80;;;15.00;99.90;;;;;;4931299;28;20196;-88
2021/10/02 08:06:50;;;;;;;2.90;2.20;;;14.70;99.90;;;;;;4995766;28;20316;-88
2021/10/02 08:09:16;;;;;;;2.93;2.03;;;14.50;99.90;;;;;;4964811;28;20204;-87
2021/10/02 08:11:43;;;;;;;2.73;2.53;;;15.00;99.90;;;;;;4976623;28;20228;-88
2021/10/02 08:14:11;;;;;;;3.87;2.57;;;15.80;99.90;;;;;;4983303;28;20705;-87
2021/10/02 08:16:38;;;;;;;7.37;3.03;;;16.60;99.90;;;;;;4995639;28;20584;-88
2021/10/02 08:19:09;;;;;;;3.00;1.97;;;17.50;99.90;;;;;;4979115;28;20193;-87
2021/10/02 08:21:38;;;;;;;2.87;2.00;;;17.20;99.90;;;;;;5001426;28;20291;-88
2021/10/02 08:24:04;;;;;;;3.13;2.60;;;17.00;99.90;;;;;;4977268;28;20208;-85
2021/10/02 08:26:31;;;;;;;2.53;2.07;;;17.30;99.90;;;;;;4981259;28;20267;-85
2021/10/02 08:28:58;;;;;;;5.30;2.13;;;17.70;99.90;;;;;;4994446;28;20224;-85
2021/10/02 08:31:25;;;;;;;5.40;2.27;;;18.10;99.90;;;;;;4995674;28;20261;-85
2021/10/02 08:33:52;;;;;;;3.30;1.80;;;19.00;99.90;;;;;;4995646;28;20200;-86
2021/10/02 08:36:19;;;;;;;2.40;2.00;;;19.50;99.90;;;;;;4977579;28;20254;-85
2021/10/02 08:38:45;;;;;;;4.30;1.77;;;20.20;99.90;;;;;;4966013;28;20232;-86
2021/10/02 08:41:15;;;;;;;3.37;1.73;;;20.40;99.90;;;;;;4978931;28;20748;-85
2021/10/02 08:43:41;;;;;;;5.40;2.20;;;20.50;99.90;;;;;;4979819;28;20273;-85
2021/10/02 08:46:09;;;;;;;3.13;2.20;;;19.70;99.90;;;;;;4994399;28;20230;-86
2021/10/02 08:48:36;;;;;;;3.97;1.87;;;19.10;99.90;;;;;;4994938;28;20229;-86
2021/10/02 08:51:03;;;;;;;3.33;2.23;;;18.30;99.90;;;;;;4978511;28;20219;-87
2021/10/02 08:53:30;;;;;;;5.53;1.80;;;17.70;99.90;;;;;;4995372;28;20220;-85
2021/10/02 08:55:59;;;;;;;2.40;1.80;;;17.50;99.90;;;;;;5010582;28;20225;-88
2021/10/02 08:58:24;;;;;;;2.17;1.70;;;17.30;99.90;;;;;;4991877;28;20189;-87
2021/10/02 09:00:51;;;;;;;5.47;1.67;;;17.20;99.90;;;;;;4990316;28;20662;-87
2021/10/02 09:03:19;;;;;;;2.20;2.00;;;17.30;99.90;;;;;;4957610;28;20242;-88
2021/10/02 09:05:45;;;;;;;2.03;1.43;;;17.00;99.90;;;;;;4987501;28;20223;-88
2021/10/02 09:08:11;;;;;;;1.87;1.67;;;16.80;99.90;;;;;;4986696;28;20232;-88
2021/10/02 09:10:38;;;;;;;6.83;2.57;;;16.60;99.90;;;;;;4976658;28;20216;-87
2021/10/02 09:13:04;;;;;;;4.43;2.57;;;16.50;99.90;;;;;;4974267;28;20279;-87
2021/10/02 09:15:30;;;;;;;5.47;2.53;;;16.60;99.90;;;;;;4994615;28;20618;-87
2021/10/02 09:17:56;;;;;;;6.23;3.03;;;16.70;99.90;;;;;;4981077;28;21413;-87
2021/10/02 09:20:23;;;;;;;4.53;3.03;;;16.60;99.90;;;;;;4974119;28;20253;-87
2021/10/02 09:23:12;;;;;;;5.47;4.20;;;16.40;99.90;;;;;;4949789;28;20583;-88
2021/10/02 09:25:46;;;;;;;8.87;3.93;;;16.20;99.90;;;;;;4974264;28;20225;-87
2021/10/02 09:28:14;;;;;;;9.33;3.73;;;16.00;99.90;;;;;;4973256;28;20308;-88
2021/10/02 09:30:43;;;;;;;7.20;3.63;;;15.80;99.90;;;;;;4978028;28;20197;-87
2021/10/02 09:33:14;;;;;;;6.13;4.37;;;15.80;99.90;;;;;;4966724;28;20214;-88
2021/10/02 09:35:42;;;;;;;9.43;4.23;;;15.90;99.90;;;;;;4949360;28;20308;-88
2021/10/02 09:38:10;;;;;;;6.50;3.87;;;16.10;99.90;;;;;;4960871;28;20207;-88
2021/10/02 09:40:36;;;;;;;10.87;4.20;;;16.40;99.90;;;;;;4974282;28;20961;-87
2021/10/02 09:43:03;;;;;;;9.77;6.47;;;16.50;99.90;;;;;;4926648;28;20272;-88
2021/10/02 09:45:36;;;;;;;9.33;6.67;;;16.40;99.90;;;;;;4958941;28;20233;-88
2021/10/02 09:48:05;;;;;;;10.23;5.63;;;16.30;99.90;;;;;;4974166;28;20246;-88
2021/10/02 09:50:49;;;;;;;10.10;5.47;;;16.30;99.90;;;;;;4994659;28;20228;-89
2021/10/02 09:53:18;;;;;;;11.80;6.93;;;16.40;99.90;;;;;;4977999;28;20782;-89
2021/10/02 09:55:50;;;;;;;10.43;6.37;;;16.40;99.90;;;;;;4972231;28;20220;-88
2021/10/02 09:58:26;;;;;;;12.37;6.73;;;16.50;99.90;;;;;;4990430;28;20189;-88
2021/10/02 10:00:52;;;;;;;8.77;5.00;;;16.10;99.90;;;;;;4967368;28;20256;-88
2021/10/02 10:03:18;;;;;;;8.93;4.70;;;15.60;99.90;;;;;;4990573;28;21230;-88
2021/10/02 10:05:50;;;;;;;7.40;5.37;;;15.50;99.90;;;;;;4975562;28;21228;-88
2021/10/02 10:08:28;;;;;;;7.70;4.20;;;15.60;99.90;;;;;;4973120;28;20220;-88
2021/10/02 10:11:08;;;;;;;10.93;4.00;;;15.80;99.90;;;;;;4983927;28;20236;-88
2021/10/02 10:13:34;;;;;;;6.77;4.73;;;16.10;99.90;;;;;;4968084;28;20339;-88
2021/10/02 10:16:04;;;;;;;8.07;4.27;;;16.20;99.90;;;;;;4968314;28;20210;-88
2021/10/02 10:18:38;;;;;;;8.53;4.10;;;16.40;99.90;;;;;;4968424;28;20217;-88
2021/10/02 10:21:09;;;;;;;8.13;4.90;;;16.20;99.90;;;;;;4983216;28;20229;-88
2021/10/02 10:23:47;;;;;;;8.53;4.43;;;16.10;99.90;;;;;;5000548;28;20216;-88
2021/10/02 10:26:16;;;;;;;8.33;4.40;;;16.20;99.90;;;;;;4967546;28;20599;-87
2021/10/02 10:28:45;;;;;;;6.90;4.40;;;16.20;99.90;;;;;;4999914;28;20220;-88
2021/10/02 10:31:12;;;;;;;8.67;3.93;;;16.10;99.90;;;;;;4967207;28;20220;-88
2021/10/02 10:33:40;;;;;;;7.43;3.57;;;16.20;99.90;;;;;;4968027;28;20200;-87
2021/10/02 10:36:06;;;;;;;6.67;3.63;;;16.20;99.90;;;;;;4998990;28;20564;-87
2021/10/02 10:38:35;;;;;;;6.03;3.30;;;17.00;99.90;;;;;;4983251;28;20232;-88
2021/10/02 10:41:03;;;;;;;5.37;3.33;;;16.90;99.90;;;;;;4971117;28;20227;-88
2021/10/02 10:43:30;;;;;;;4.97;3.27;;;16.80;99.90;;;;;;4982434;28;20224;-88
2021/10/02 10:46:05;;;;;;;4.83;2.30;;;16.50;99.90;;;;;;4973766;28;20582;-88
2021/10/02 10:48:31;;;;;;;8.30;3.77;;;16.60;99.90;;;;;;4976660;28;20216;-88
2021/10/02 10:51:04;;;;;;;6.83;3.40;;;17.10;99.90;;;;;;4961473;28;20705;-88
2021/10/02 10:53:49;;;;;;;4.07;2.60;;;17.50;99.90;;;;;;4973439;28;20217;-89
2021/10/02 10:56:17;;;;;;;7.43;2.47;;;17.70;99.90;;;;;;4952013;28;20205;-85
2021/10/02 10:58:43;;;;;;;4.27;1.80;;;18.10;99.90;;;;;;4968311;28;20221;-85
2021/10/02 11:01:11;;;;;;;3.77;2.10;;;18.00;99.90;;;;;;4999655;28;20216;-87
2021/10/02 11:03:37;;;;;;;3.87;2.33;;;18.10;99.90;;;;;;4967044;28;20565;-84
2021/10/02 11:06:06;;;;;;;2.87;1.50;;;18.60;99.90;;;;;;4975666;28;20209;-85
2021/10/02 11:09:02;;;;;;;5.17;1.70;;;19.10;99.90;;;;;;4967834;28;20223;-85
2021/10/02 11:11:46;;;;;;;4.27;1.57;;;18.80;99.90;;;;;;5008874;28;20294;-85
2021/10/02 11:14:15;;;;;;;4.13;1.73;;;18.00;99.90;;;;;;4991564;28;20232;-85
2021/10/02 11:16:44;;;;;;;2.70;1.80;;;17.80;99.90;;;;;;4988950;28;20225;-85
2021/10/02 11:19:36;;;;;;;3.17;2.23;;;17.70;99.90;;;;;;4940577;28;20193;-88
2021/10/02 11:23:03;;;;;;;4.07;1.90;;;17.40;99.90;;;;;;4965194;28;20720;-86
2021/10/02 11:25:29;;;;;;;5.00;2.40;;;17.40;99.90;;;;;;4950984;28;20636;-87
2021/10/02 11:28:21;;;;;;;4.50;1.80;;;17.40;99.90;;;;;;4979455;28;20725;-87
2021/10/02 11:30:48;;;;;;;7.87;3.20;;;17.50;99.90;;;;;;4966225;28;20230;-87
2021/10/02 11:33:47;;;;;;;10.57;2.30;;;17.40;99.90;;;;;;4966991;28;20220;-87
2021/10/02 11:36:31;;;;;;;11.37;2.33;;;17.30;99.90;;;;;;4966548;28;20236;-88
2021/10/02 11:39:12;;;;;;;7.53;2.30;;;17.40;99.90;;;;;;4968222;28;20216;-87
2021/10/02 11:41:45;;;;;;;3.53;2.13;;;17.50;99.90;;;;;;4972540;28;20734;-87
2021/10/02 11:44:12;;;;;;;3.87;1.97;;;17.20;99.90;;;;;;4968633;28;20209;-87
2021/10/02 11:46:39;;;;;;;5.27;2.00;;;17.50;99.90;;;;;;4976859;28;20619;-88
2021/10/02 11:49:19;;;;;;;4.43;2.60;;;17.80;99.90;;;;;;4975792;28;20673;-88
2021/10/02 11:52:08;;;;;;;4.40;2.37;;;17.60;99.90;;;;;;4967264;28;20230;-88
2021/10/02 11:54:34;;;;;;;15.90;2.60;;;17.50;99.90;;;;;;4999264;28;20273;-88
2021/10/02 11:57:14;;;;;;;4.00;2.70;;;17.30;99.90;;;;;;4973721;28;20293;-88
2021/10/02 11:59:45;;;;;;;6.43;2.57;;;16.90;99.90;;;;;;4964000;28;20229;-88
2021/10/02 12:02:12;;;;;;;4.20;2.03;;;17.00;99.90;;;;;;4993607;28;20314;-88
2021/10/02 12:04:39;;;;;;;4.90;2.30;;;16.90;99.90;;;;;;4992538;28;20215;-88
2021/10/02 12:07:05;;;;;;;4.90;2.73;;;16.90;99.90;;;;;;4976347;28;20239;-88
2021/10/02 12:09:31;;;;;;;5.53;2.33;;;16.70;99.90;;;;;;4992523;28;20676;-88
2021/10/02 12:11:58;;;;;;;4.07;2.50;;;16.50;99.90;;;;;;4976272;28;20219;-88
2021/10/02 12:14:26;;;;;;;6.33;2.87;;;16.50;99.90;;;;;;4991516;28;20220;-88
2021/10/02 12:17:02;;;;;;;3.20;2.63;;;16.20;99.90;;;;;;5005263;28;20588;-89
2021/10/02 12:19:29;;;;;;;9.50;3.57;;;16.00;99.90;;;;;;4966237;28;20279;-89
2021/10/02 12:22:00;;;;;;;6.30;3.53;;;16.00;99.90;;;;;;4955512;28;20228;-88
2021/10/02 12:24:35;;;;;;;5.73;3.27;;;16.00;99.90;;;;;;4977927;28;20303;-88
2021/10/02 12:27:03;;;;;;;5.27;3.57;;;16.00;99.90;;;;;;4979011;28;20653;-88
2021/10/02 12:29:36;;;;;;;5.00;3.87;;;15.90;99.90;;;;;;5001270;28;20224;-88
2021/10/02 12:32:09;;;;;;;9.17;4.10;;;15.90;99.90;;;;;;4960176;28;20997;-86
2021/10/02 12:34:42;;;;;;;8.20;4.30;;;16.00;99.90;;;;;;4995007;28;20220;-88
2021/10/02 12:37:15;;;;;;;8.37;3.93;;;15.90;99.90;;;;;;4977951;28;20181;-87
2021/10/02 12:39:46;;;;;;;4.60;3.77;;;15.90;99.90;;;;;;4978564;28;20879;-87
2021/10/02 12:42:17;;;;;;;3.20;2.83;;;16.00;99.90;;;;;;4986995;28;20615;-87
2021/10/02 12:44:50;;;;;;;4.30;2.97;;;15.90;99.90;;;;;;4977547;28;20247;-88
2021/10/02 12:47:19;;;;;;;5.37;2.60;;;15.90;99.90;;;;;;4969765;28;20583;-87
2021/10/02 12:49:47;;;;;;;8.40;4.10;;;15.90;99.90;;;;;;4959071;28;20224;-87
2021/10/02 12:52:15;;;;;;;4.37;3.07;;;16.00;99.90;;;;;;4960284;28;20201;-87
2021/10/02 12:54:45;;;;;;;2.77;2.30;;;15.90;99.90;;;;;;4958906;28;20669;-88
2021/10/02 12:57:14;;;;;;;5.57;2.73;;;15.80;99.90;;;;;;4984156;28;20232;-87
2021/10/02 13:00:08;;;;;;;3.20;1.90;;;15.80;99.90;;;;;;4968553;28;20209;-88
2021/10/02 13:02:41;;;;;;;6.63;3.23;;;15.80;99.90;;;;;;4964480;28;20213;-87
2021/10/02 13:05:08;;;;;;;5.43;3.43;;;15.60;99.90;;;;;;4973021;28;20232;-88
2021/10/02 13:07:36;;;;;;;4.30;2.70;;;15.50;99.90;;;;;;4993120;28;20212;-87
2021/10/02 13:10:07;;;;;;;3.93;2.80;;;15.60;99.90;;;;;;4986695;28;20195;-87
2021/10/02 13:13:01;;;;;;;4.33;2.07;;;15.50;99.90;;;;;;4970056;28;20220;-86
2021/10/02 13:15:35;;;;;;;4.03;3.20;;;15.50;99.90;;;;;;4978053;28;20220;-87
2021/10/02 13:18:11;;;;;;;3.70;2.13;;;15.50;99.90;;;;;;4980867;28;20262;-86
2021/10/02 13:20:40;;;;;;;3.60;2.63;;;15.40;99.90;;;;;;4981637;28;20224;-88
2021/10/02 13:23:19;;;;;;;5.53;2.27;;;15.50;99.90;;;;;;4977380;28;20557;-89
2021/10/02 13:25:54;;;;;;;8.37;2.97;;;15.50;99.90;;;;;;4975770;28;20716;-88
2021/10/02 13:28:34;;;;;;;2.83;2.20;;;15.40;99.90;;;;;;5000568;28;20280;-87
2021/10/02 13:31:19;;;;;;;3.70;2.20;;;15.30;99.90;;;;;;4979741;28;20189;-88
2021/10/02 13:33:47;;;;;;;5.80;2.33;;;15.20;99.90;;;;;;4985407;28;20247;-88
2021/10/02 13:36:29;;;;;;;3.07;1.37;;;15.20;99.90;;;;;;4960754;28;20686;-87
2021/10/02 13:39:06;;;;;;;2.10;1.47;;;15.20;99.90;;;;;;4990431;28;20213;-87
2021/10/02 13:41:32;;;;;;;7.10;1.87;;;15.20;99.90;;;;;;4994236;28;20228;-88
2021/10/02 13:44:04;;;;;;;4.13;1.70;;;15.10;99.90;;;;;;4953459;28;20240;-87
2021/10/02 13:46:42;;;;;;;3.70;2.30;;;15.10;99.90;;;;;;4965421;28;20288;-86
2021/10/02 13:49:11;;;;;;;3.13;2.30;;;15.10;99.90;;;;;;4989153;28;20189;-88
2021/10/02 13:51:38;;;;;;;3.80;1.70;;;15.10;99.90;;;;;;4987837;28;20312;-87